CheckWX is a tool to help pilots better visualize weather data.  It is not intended as a substitute for an official pre-flight weather briefing.

04:39:03 UTC

LERT TAF
Rota Naval Station Airport
Rota, Spain
TAF LERT 230200Z 2303/2312 04007KT CAVOK BECMG 2308/2310 11014KT

Mar-23@
03:00 UTC

Mar-23 @ 03:00 UTC

Mar-23@
08:00 UTC

Mar-23 @ 08:00 UTC

TAF LERT 230200Z 2303/2312 04007KT CAVOK
Wind
  • 040° at 7 KTS
Conditions
No significant weather
Cloud Levels
  • No significant clouds

Mar-23@
08:00 UTC

Mar-23 @ 08:00 UTC

Mar-23@
12:00 UTC

Mar-23 @ 12:00 UTC

BECMG 2308/2310 11014KT

Becoming

Becoming Conditions expected by Sat, Mar 23, 2019 @ 10:00 UTC

Wind
  • 110° at 14 KTS
Conditions
No significant weather
Cloud Levels
  • No significant clouds